Time,TemperatureF,DewpointF,PressureIn,WindDirection,WindDirectionDegrees,WindSpeedMPH,WindSpeedGustMPH,Humidity,HourlyPrecipIn,Conditions,Clouds,dailyrainin,SoftwareType,DateUTC
2013-11-04 00:08:00,55.5,45.0,30.88,ENE,76,4.0,-999.0,69,-99.99,,,0.00,weatherlink.com 1.10,2013-11-04 06:08:00,
2013-11-04 00:23:00,55.3,45.0,30.89,East,86,4.0,-999.0,69,-99.99,,,0.00,weatherlink.com 1.10,2013-11-04 06:23:00,
2013-11-04 00:38:00,55.2,45.0,30.88,East,92,2.0,-999.0,69,-99.99,,,0.00,weatherlink.com 1.10,2013-11-04 06:38:00,
2013-11-04 00:53:00,55.2,45.0,30.88,East,92,2.0,-999.0,69,-99.99,,,0.00,weatherlink.com 1.10,2013-11-04 06:53:00,
2013-11-04 01:08:00,55.3,45.0,30.88,East,85,7.0,-999.0,68,-99.99,,,0.00,weatherlink.com 1.10,2013-11-04 07:08:00,
2013-11-04 01:23:00,55.5,45.0,30.87,ENE,58,5.0,-999.0,68,-99.99,,,0.00,weatherlink.com 1.10,2013-11-04 07:23:00,
2013-11-04 01:38:00,55.6,45.0,30.87,East,88,3.0,-999.0,68,-99.99,,,0.00,weatherlink.com 1.10,2013-11-04 07:38:00,
2013-11-04 01:53:00,56.1,46.0,30.86,East,94,2.0,-999.0,68,-99.99,,,0.00,weatherlink.com 1.10,2013-11-04 07:53:00,
2013-11-04 02:08:00,56.6,46.0,30.87,ESE,104,3.0,-999.0,68,-99.99,,,0.00,weatherlink.com 1.10,2013-11-04 08:08:00,
2013-11-04 02:23:00,56.8,46.0,30.87,East,92,1.0,-999.0,68,-99.99,,,0.00,weatherlink.com 1.10,2013-11-04 08:23:00,
2013-11-04 02:38:00,57.0,46.0,30.86,NE,36,3.0,-999.0,68,-99.99,,,0.00,weatherlink.com 1.10,2013-11-04 08:38:00,
2013-11-04 02:53:00,56.9,46.0,30.85,ENE,69,2.0,-999.0,68,-99.99,,,0.00,weatherlink.com 1.10,2013-11-04 08:53:00,
2013-11-04 03:08:00,56.6,46.0,30.84,ENE,61,2.0,-999.0,68,-99.99,,,0.00,weatherlink.com 1.10,2013-11-04 09:08:00,
2013-11-04 03:23:00,56.6,46.0,30.84,ENE,74,7.0,-999.0,67,-99.99,,,0.00,weatherlink.com 1.10,2013-11-04 09:23:00,
2013-11-04 03:38:00,56.9,46.0,30.83,ENE,78,4.0,-999.0,67,-99.99,,,0.00,weatherlink.com 1.10,2013-11-04 09:38:00,
2013-11-04 03:53:00,57.1,46.0,30.84,ENE,71,5.0,-999.0,66,-99.99,,,0.00,weatherlink.com 1.10,2013-11-04 09:53:00,
2013-11-04 04:08:00,57.0,45.0,30.84,ENE,71,3.0,-999.0,65,-99.99,,,0.00,weatherlink.com 1.10,2013-11-04 10:08:00,
2013-11-04 04:23:00,57.4,46.0,30.84,ENE,77,3.0,-999.0,65,-99.99,,,0.00,weatherlink.com 1.10,2013-11-04 10:23:00,
2013-11-04 04:38:00,57.3,46.0,30.84,ENE,61,1.0,-999.0,65,-99.99,,,0.00,weatherlink.com 1.10,2013-11-04 10:38:00,
2013-11-04 04:53:00,57.1,45.0,30.83,ENE,65,5.0,-999.0,64,-99.99,,,0.00,weatherlink.com 1.10,2013-11-04 10:53:00,
2013-11-04 05:08:00,56.8,45.0,30.82,ENE,76,3.0,-999.0,64,-99.99,,,0.00,weatherlink.com 1.10,2013-11-04 11:08:00,
2013-11-04 05:23:00,56.7,44.0,30.82,East,90,3.0,-999.0,63,-99.99,,,0.00,weatherlink.com 1.10,2013-11-04 11:23:00,
2013-11-04 05:38:00,57.0,44.0,30.83,ENE,75,5.0,-999.0,63,-99.99,,,0.00,weatherlink.com 1.10,2013-11-04 11:38:00,
2013-11-04 05:53:00,57.1,44.0,30.85,ENE,58,2.0,-999.0,63,-99.99,,,0.00,weatherlink.com 1.10,2013-11-04 11:53:00,
2013-11-04 06:08:00,56.9,44.0,30.85,East,85,3.0,-999.0,62,-99.99,,,0.00,weatherlink.com 1.10,2013-11-04 12:08:00,
2013-11-04 06:23:00,56.8,43.0,30.86,East,101,0.0,-999.0,61,-99.99,,,0.00,weatherlink.com 1.10,2013-11-04 12:23:00,
2013-11-04 06:38:00,56.7,43.0,30.85,East,79,0.0,-999.0,60,-99.99,,,0.00,weatherlink.com 1.10,2013-11-04 12:38:00,
2013-11-04 06:53:00,56.9,42.0,30.86,East,92,0.0,-999.0,58,-99.99,,,0.00,weatherlink.com 1.10,2013-11-04 12:53:00,
2013-11-04 07:08:00,56.9,42.0,30.86,East,94,0.0,-999.0,58,-99.99,,,0.00,weatherlink.com 1.10,2013-11-04 13:08:00,
2013-11-04 07:23:00,56.8,41.0,30.86,ENE,69,0.0,-999.0,57,-99.99,,,0.00,weatherlink.com 1.10,2013-11-04 13:23:00,
2013-11-04 07:38:00,57.2,41.0,30.87,East,88,0.0,-999.0,55,-99.99,,,0.00,weatherlink.com 1.10,2013-11-04 13:38:00,
2013-11-04 07:53:00,58.4,42.0,30.88,East,88,0.0,-999.0,55,-99.99,,,0.00,weatherlink.com 1.10,2013-11-04 13:53:00,
2013-11-04 08:23:00,59.6,44.0,30.89,NE,40,0.0,-999.0,57,-99.99,,,0.00,weatherlink.com 1.10,2013-11-04 14:23:00,
2013-11-04 08:38:00,60.5,46.0,30.90,ENE,78,9.0,-999.0,59,-99.99,,,0.00,weatherlink.com 1.10,2013-11-04 14:38:00,
2013-11-04 08:53:00,61.4,48.0,30.90,ENE,75,4.0,-999.0,61,-99.99,,,0.00,weatherlink.com 1.10,2013-11-04 14:53:00,
2013-11-04 09:09:00,61.9,47.0,30.90,East,83,2.0,-999.0,59,-99.99,,,0.00,weatherlink.com 1.10,2013-11-04 15:09:00,
2013-11-04 09:24:00,63.2,48.0,30.90,ENE,70,5.0,-999.0,59,-99.99,,,0.00,weatherlink.com 1.10,2013-11-04 15:24:00,
2013-11-04 09:39:00,64.5,50.0,30.90,East,79,5.0,-999.0,59,-99.99,,,0.00,weatherlink.com 1.10,2013-11-04 15:39:00,
2013-11-04 09:54:00,65.4,51.0,30.90,East,82,3.0,-999.0,60,-99.99,,,0.00,weatherlink.com 1.10,2013-11-04 15:54:00,
2013-11-04 10:09:00,66.0,51.0,30.90,East,98,2.0,-999.0,59,-99.99,,,0.00,weatherlink.com 1.10,2013-11-04 16:09:00,
2013-11-04 10:24:00,66.3,51.0,30.90,NE,45,3.0,-999.0,58,-99.99,,,0.00,weatherlink.com 1.10,2013-11-04 16:24:00,
2013-11-04 10:39:00,66.9,51.0,30.90,ENE,76,3.0,-999.0,57,-99.99,,,0.00,weatherlink.com 1.10,2013-11-04 16:39:00,
2013-11-04 10:54:00,67.9,52.0,30.89,ENE,73,2.0,-999.0,57,-99.99,,,0.00,weatherlink.com 1.10,2013-11-04 16:54:00,
2013-11-04 11:09:00,68.6,53.0,30.89,ENE,74,2.0,-999.0,58,-99.99,,,0.00,weatherlink.com 1.10,2013-11-04 17:09:00,
2013-11-04 11:39:00,69.0,54.0,30.87,East,96,3.0,-999.0,59,-99.99,,,0.00,weatherlink.com 1.10,2013-11-04 17:39:00,
2013-11-04 11:54:00,69.4,54.0,30.86,NE,34,4.0,-999.0,59,-99.99,,,0.00,weatherlink.com 1.10,2013-11-04 17:54:00,
2013-11-04 12:10:00,69.8,54.0,30.86,ESE,107,2.0,-999.0,57,-99.99,,,0.00,weatherlink.com 1.10,2013-11-04 18:10:00,
2013-11-04 12:25:00,69.8,55.0,30.85,ENE,76,4.0,-999.0,60,-99.99,,,0.00,weatherlink.com 1.10,2013-11-04 18:25:00,
2013-11-04 12:40:00,69.7,54.0,30.85,ESE,114,1.0,-999.0,58,-99.99,,,0.00,weatherlink.com 1.10,2013-11-04 18:40:00,
2013-11-04 12:55:00,69.5,53.0,30.84,ENE,76,5.0,-999.0,57,-99.99,,,0.00,weatherlink.com 1.10,2013-11-04 18:55:00,
2013-11-04 13:09:00,69.7,53.0,30.84,East,93,3.0,-999.0,56,-99.99,,,0.00,weatherlink.com 1.10,2013-11-04 19:09:00,
2013-11-04 13:24:00,69.5,52.0,30.83,ENE,61,4.0,-999.0,55,-99.99,,,0.00,weatherlink.com 1.10,2013-11-04 19:24:00,
2013-11-04 13:39:00,69.3,51.0,30.83,East,79,5.0,-999.0,52,-99.99,,,0.00,weatherlink.com 1.10,2013-11-04 19:39:00,
2013-11-04 13:54:00,69.1,50.0,30.83,ENE,69,6.0,-999.0,50,-99.99,,,0.00,weatherlink.com 1.10,2013-11-04 19:54:00,
2013-11-04 14:09:00,68.7,47.0,30.82,East,88,5.0,-999.0,46,-99.99,,,0.00,weatherlink.com 1.10,2013-11-04 20:09:00,
2013-11-04 14:24:00,68.1,43.0,30.82,ENE,75,3.0,-999.0,40,-99.99,,,0.00,weatherlink.com 1.10,2013-11-04 20:24:00,
2013-11-04 14:39:00,67.7,40.0,30.82,East,80,3.0,-999.0,37,-99.99,,,0.02,weatherlink.com 1.10,2013-11-04 20:39:00,
2013-11-04 14:54:00,67.5,39.0,30.82,East,80,0.0,-999.0,35,-99.99,,,0.04,weatherlink.com 1.10,2013-11-04 20:54:00,
2013-11-04 15:09:00,67.3,39.0,30.81,East,80,0.0,-999.0,35,-99.99,,,0.05,weatherlink.com 1.10,2013-11-04 21:09:00,
2013-11-04 15:24:00,67.3,38.0,30.82,East,80,0.0,-999.0,34,-99.99,,,0.06,weatherlink.com 1.10,2013-11-04 21:24:00,
2013-11-04 15:39:00,67.2,38.0,30.82,North,360,0.0,-999.0,34,-99.99,,,0.07,weatherlink.com 1.10,2013-11-04 21:39:00,
2013-11-04 15:54:00,67.1,38.0,30.82,North,360,0.0,-999.0,34,-99.99,,,0.09,weatherlink.com 1.10,2013-11-04 21:54:00,
2013-11-04 16:10:00,67.1,37.0,30.81,ENE,77,4.0,-999.0,33,-99.99,,,0.10,weatherlink.com 1.10,2013-11-04 22:10:00,
2013-11-04 16:25:00,67.0,37.0,30.81,ENE,59,1.0,-999.0,33,-99.99,,,0.11,weatherlink.com 1.10,2013-11-04 22:25:00,
2013-11-04 16:40:00,67.0,37.0,30.81,ENE,63,0.0,-999.0,33,-99.99,,,0.11,weatherlink.com 1.10,2013-11-04 22:40:00,
2013-11-04 16:55:00,67.0,37.0,30.81,ENE,64,0.0,-999.0,33,-99.99,,,0.12,weatherlink.com 1.10,2013-11-04 22:55:00,
2013-11-04 17:10:00,66.9,37.0,30.81,East,80,0.0,-999.0,33,-99.99,,,0.12,weatherlink.com 1.10,2013-11-04 23:10:00,
2013-11-04 17:25:00,67.0,37.0,30.81,ENE,76,0.0,-999.0,33,-99.99,,,0.12,weatherlink.com 1.10,2013-11-04 23:25:00,
2013-11-04 17:40:00,66.9,37.0,30.81,ENE,77,0.0,-999.0,33,-99.99,,,0.12,weatherlink.com 1.10,2013-11-04 23:40:00,
2013-11-04 17:55:00,66.9,37.0,30.81,ENE,72,0.0,-999.0,33,-99.99,,,0.12,weatherlink.com 1.10,2013-11-04 23:55:00,
2013-11-04 18:09:00,66.9,37.0,30.81,ENE,67,0.0,-999.0,33,-99.99,,,0.12,weatherlink.com 1.10,2013-11-05 00:09:00,
2013-11-04 18:24:00,67.0,37.0,30.81,East,90,0.0,-999.0,33,-99.99,,,0.12,weatherlink.com 1.10,2013-11-05 00:24:00,
2013-11-04 18:39:00,67.1,37.0,30.82,East,80,0.0,-999.0,33,-99.99,,,0.12,weatherlink.com 1.10,2013-11-05 00:39:00,
2013-11-04 18:54:00,67.1,37.0,30.82,ESE,114,0.0,-999.0,33,-99.99,,,0.12,weatherlink.com 1.10,2013-11-05 00:54:00,
2013-11-04 19:09:00,67.1,37.0,30.82,ENE,78,0.0,-999.0,33,-99.99,,,0.12,weatherlink.com 1.10,2013-11-05 01:09:00,
2013-11-04 19:24:00,67.1,37.0,30.82,East,79,0.0,-999.0,33,-99.99,,,0.12,weatherlink.com 1.10,2013-11-05 01:24:00,
2013-11-04 19:39:00,67.2,37.0,30.83,ENE,74,0.0,-999.0,33,-99.99,,,0.12,weatherlink.com 1.10,2013-11-05 01:39:00,
2013-11-04 19:54:00,67.3,38.0,30.83,East,82,0.0,-999.0,34,-99.99,,,0.12,weatherlink.com 1.10,2013-11-05 01:54:00,
2013-11-04 20:10:00,67.3,38.0,30.83,ESE,111,0.0,-999.0,34,-99.99,,,0.12,weatherlink.com 1.10,2013-11-05 02:10:00,
2013-11-04 20:25:00,67.2,38.0,30.83,East,94,0.0,-999.0,34,-99.99,,,0.12,weatherlink.com 1.10,2013-11-05 02:25:00,
2013-11-04 20:40:00,67.3,38.0,30.83,SE,128,0.0,-999.0,34,-99.99,,,0.12,weatherlink.com 1.10,2013-11-05 02:40:00,
2013-11-04 20:55:00,67.3,37.0,30.83,ENE,73,0.0,-999.0,33,-99.99,,,0.12,weatherlink.com 1.10,2013-11-05 02:55:00,
2013-11-04 21:09:00,67.4,37.0,30.83,East,86,0.0,-999.0,33,-99.99,,,0.12,weatherlink.com 1.10,2013-11-05 03:09:00,
2013-11-04 21:24:00,67.6,37.0,30.83,East,85,0.0,-999.0,33,-99.99,,,0.12,weatherlink.com 1.10,2013-11-05 03:24:00,
2013-11-04 21:39:00,67.9,38.0,30.84,SE,144,0.0,-999.0,33,-99.99,,,0.12,weatherlink.com 1.10,2013-11-05 03:39:00,
2013-11-04 21:54:00,68.3,38.0,30.85,ESE,121,0.0,-999.0,33,-99.99,,,0.12,weatherlink.com 1.10,2013-11-05 03:54:00,
2013-11-04 22:09:00,68.3,38.0,30.85,SSE,150,0.0,-999.0,33,-99.99,,,0.12,weatherlink.com 1.10,2013-11-05 04:09:00,
2013-11-04 22:24:00,68.0,38.0,30.86,SSW,193,0.0,-999.0,33,-99.99,,,0.13,weatherlink.com 1.10,2013-11-05 04:24:00,
2013-11-04 22:39:00,67.7,37.0,30.85,South,171,0.0,-999.0,33,-99.99,,,0.14,weatherlink.com 1.10,2013-11-05 04:39:00,
2013-11-04 22:54:00,67.6,37.0,30.85,South,179,0.0,-999.0,33,-99.99,,,0.15,weatherlink.com 1.10,2013-11-05 04:54:00,
2013-11-04 23:09:00,67.2,36.0,30.85,South,173,0.0,-999.0,32,-99.99,,,0.15,weatherlink.com 1.10,2013-11-05 05:09:00,
2013-11-04 23:24:00,67.0,37.0,30.85,South,173,0.0,-999.0,33,-99.99,,,0.15,weatherlink.com 1.10,2013-11-05 05:24:00,
2013-11-04 23:39:00,66.8,37.0,30.84,South,173,0.0,-999.0,33,-99.99,,,0.15,weatherlink.com 1.10,2013-11-05 05:39:00,
2013-11-04 23:54:00,66.7,37.0,30.84,South,173,0.0,-999.0,33,-99.99,,,0.00,weatherlink.com 1.10,2013-11-05 05:54:00,